sensor_id;sensor_type;location;lat;lon;timestamp;P1;durP1;ratioP1;P2;durP2;ratioP2
59530;SDS011;45349;48.692;8.186;2023-06-22T00:01:10;8.83;;;6.10;;
59530;SDS011;45349;48.692;8.186;2023-06-22T00:03:37;8.50;;;6.53;;
59530;SDS011;45349;48.692;8.186;2023-06-22T00:06:04;9.23;;;6.13;;
59530;SDS011;45349;48.692;8.186;2023-06-22T00:08:30;9.63;;;6.10;;
59530;SDS011;45349;48.692;8.186;2023-06-22T00:10:58;12.77;;;6.20;;
59530;SDS011;45349;48.692;8.186;2023-06-22T00:13:24;9.73;;;6.67;;
59530;SDS011;45349;48.692;8.186;2023-06-22T00:15:51;13.13;;;7.87;;
59530;SDS011;45349;48.692;8.186;2023-06-22T00:18:18;13.30;;;7.50;;
59530;SDS011;45349;48.692;8.186;2023-06-22T00:20:45;11.20;;;7.57;;
59530;SDS011;45349;48.692;8.186;2023-06-22T00:23:12;11.17;;;7.70;;
59530;SDS011;45349;48.692;8.186;2023-06-22T00:25:41;10.70;;;7.40;;
59530;SDS011;45349;48.692;8.186;2023-06-22T00:28:09;12.57;;;7.60;;
59530;SDS011;45349;48.692;8.186;2023-06-22T00:30:35;12.67;;;7.43;;
59530;SDS011;45349;48.692;8.186;2023-06-22T00:33:02;9.80;;;6.87;;
59530;SDS011;45349;48.692;8.186;2023-06-22T00:35:32;11.23;;;7.40;;
59530;SDS011;45349;48.692;8.186;2023-06-22T00:37:59;9.33;;;6.93;;
59530;SDS011;45349;48.692;8.186;2023-06-22T00:40:28;12.37;;;7.00;;
59530;SDS011;45349;48.692;8.186;2023-06-22T00:42:56;10.97;;;6.63;;
59530;SDS011;45349;48.692;8.186;2023-06-22T00:45:24;11.37;;;7.13;;
59530;SDS011;45349;48.692;8.186;2023-06-22T00:47:52;14.70;;;7.53;;
59530;SDS011;45349;48.692;8.186;2023-06-22T00:50:24;8.23;;;6.67;;
59530;SDS011;45349;48.692;8.186;2023-06-22T00:52:53;8.97;;;5.90;;
59530;SDS011;45349;48.692;8.186;2023-06-22T00:55:23;9.37;;;6.83;;
59530;SDS011;45349;48.692;8.186;2023-06-22T00:57:51;13.87;;;6.67;;
59530;SDS011;45349;48.692;8.186;2023-06-22T01:00:23;12.73;;;6.50;;
59530;SDS011;45349;48.692;8.186;2023-06-22T01:02:52;11.83;;;6.90;;
59530;SDS011;45349;48.692;8.186;2023-06-22T01:05:24;12.63;;;6.40;;
59530;SDS011;45349;48.692;8.186;2023-06-22T01:07:54;11.33;;;6.43;;
59530;SDS011;45349;48.692;8.186;2023-06-22T01:10:29;11.47;;;6.53;;
59530;SDS011;45349;48.692;8.186;2023-06-22T01:13:01;12.97;;;5.77;;
59530;SDS011;45349;48.692;8.186;2023-06-22T01:15:33;10.20;;;5.70;;
59530;SDS011;45349;48.692;8.186;2023-06-22T01:18:04;11.23;;;6.50;;
59530;SDS011;45349;48.692;8.186;2023-06-22T01:20:35;8.77;;;5.60;;
59530;SDS011;45349;48.692;8.186;2023-06-22T01:23:10;9.63;;;5.70;;
59530;SDS011;45349;48.692;8.186;2023-06-22T01:25:45;12.43;;;5.87;;
59530;SDS011;45349;48.692;8.186;2023-06-22T01:28:19;10.90;;;6.30;;
59530;SDS011;45349;48.692;8.186;2023-06-22T01:30:53;9.57;;;6.27;;
59530;SDS011;45349;48.692;8.186;2023-06-22T01:33:28;8.17;;;5.93;;
59530;SDS011;45349;48.692;8.186;2023-06-22T01:35:57;10.43;;;6.33;;
59530;SDS011;45349;48.692;8.186;2023-06-22T01:38:24;11.57;;;6.17;;
59530;SDS011;45349;48.692;8.186;2023-06-22T01:40:51;8.90;;;6.00;;
59530;SDS011;45349;48.692;8.186;2023-06-22T01:43:19;12.73;;;6.20;;
59530;SDS011;45349;48.692;8.186;2023-06-22T01:45:48;10.23;;;5.70;;
59530;SDS011;45349;48.692;8.186;2023-06-22T01:48:16;13.97;;;5.93;;
59530;SDS011;45349;48.692;8.186;2023-06-22T01:50:43;14.17;;;6.20;;
59530;SDS011;45349;48.692;8.186;2023-06-22T01:53:10;12.87;;;6.10;;
59530;SDS011;45349;48.692;8.186;2023-06-22T01:55:36;8.27;;;5.90;;
59530;SDS011;45349;48.692;8.186;2023-06-22T01:58:03;11.13;;;5.73;;
59530;SDS011;45349;48.692;8.186;2023-06-22T02:00:31;10.03;;;6.03;;
59530;SDS011;45349;48.692;8.186;2023-06-22T02:03:01;9.20;;;5.53;;
59530;SDS011;45349;48.692;8.186;2023-06-22T02:05:33;12.52;;;6.65;;
59530;SDS011;45349;48.692;8.186;2023-06-22T02:08:08;10.13;;;5.43;;
59530;SDS011;45349;48.692;8.186;2023-06-22T02:10:38;9.00;;;6.17;;
59530;SDS011;45349;48.692;8.186;2023-06-22T02:13:07;17.97;;;5.70;;
59530;SDS011;45349;48.692;8.186;2023-06-22T02:15:37;11.90;;;6.30;;
59530;SDS011;45349;48.692;8.186;2023-06-22T02:18:04;10.87;;;6.17;;
59530;SDS011;45349;48.692;8.186;2023-06-22T02:20:32;11.70;;;6.20;;
59530;SDS011;45349;48.692;8.186;2023-06-22T02:23:03;12.83;;;5.90;;
59530;SDS011;45349;48.692;8.186;2023-06-22T02:25:29;11.50;;;6.40;;
59530;SDS011;45349;48.692;8.186;2023-06-22T02:27:57;9.13;;;5.70;;
59530;SDS011;45349;48.692;8.186;2023-06-22T02:30:23;9.53;;;5.70;;
59530;SDS011;45349;48.692;8.186;2023-06-22T02:32:50;10.40;;;5.90;;
59530;SDS011;45349;48.692;8.186;2023-06-22T02:35:24;9.63;;;5.87;;
59530;SDS011;45349;48.692;8.186;2023-06-22T02:37:52;10.20;;;6.00;;
59530;SDS011;45349;48.692;8.186;2023-06-22T02:40:24;9.83;;;5.90;;
59530;SDS011;45349;48.692;8.186;2023-06-22T02:42:51;8.80;;;5.97;;
59530;SDS011;45349;48.692;8.186;2023-06-22T02:45:22;13.83;;;6.60;;
59530;SDS011;45349;48.692;8.186;2023-06-22T02:47:49;10.90;;;6.13;;
59530;SDS011;45349;48.692;8.186;2023-06-22T02:50:19;10.53;;;5.87;;
59530;SDS011;45349;48.692;8.186;2023-06-22T02:52:46;11.83;;;5.60;;
59530;SDS011;45349;48.692;8.186;2023-06-22T02:55:14;10.13;;;5.37;;
59530;SDS011;45349;48.692;8.186;2023-06-22T02:57:47;12.10;;;5.63;;
59530;SDS011;45349;48.692;8.186;2023-06-22T03:00:22;9.20;;;5.57;;
59530;SDS011;45349;48.692;8.186;2023-06-22T03:02:55;12.83;;;5.80;;
59530;SDS011;45349;48.692;8.186;2023-06-22T03:05:22;12.57;;;6.00;;
59530;SDS011;45349;48.692;8.186;2023-06-22T03:07:49;11.67;;;5.97;;
59530;SDS011;45349;48.692;8.186;2023-06-22T03:10:24;11.77;;;6.47;;
59530;SDS011;45349;48.692;8.186;2023-06-22T03:12:51;10.53;;;5.90;;
59530;SDS011;45349;48.692;8.186;2023-06-22T03:15:22;10.47;;;5.60;;
59530;SDS011;45349;48.692;8.186;2023-06-22T03:17:54;9.77;;;5.93;;
59530;SDS011;45349;48.692;8.186;2023-06-22T03:20:23;11.33;;;6.00;;
59530;SDS011;45349;48.692;8.186;2023-06-22T03:22:51;10.10;;;6.03;;
59530;SDS011;45349;48.692;8.186;2023-06-22T03:25:23;9.07;;;5.63;;
59530;SDS011;45349;48.692;8.186;2023-06-22T03:27:50;10.93;;;6.27;;
59530;SDS011;45349;48.692;8.186;2023-06-22T03:33:03;9.27;;;5.73;;
59530;SDS011;45349;48.692;8.186;2023-06-22T03:35:29;10.93;;;4.80;;
59530;SDS011;45349;48.692;8.186;2023-06-22T03:37:56;10.03;;;5.17;;
59530;SDS011;45349;48.692;8.186;2023-06-22T03:40:24;10.23;;;5.00;;
59530;SDS011;45349;48.692;8.186;2023-06-22T03:42:50;13.13;;;5.97;;
59530;SDS011;45349;48.692;8.186;2023-06-22T03:45:22;9.00;;;5.17;;
59530;SDS011;45349;48.692;8.186;2023-06-22T03:47:49;11.93;;;5.23;;
59530;SDS011;45349;48.692;8.186;2023-06-22T03:50:15;8.57;;;5.40;;
59530;SDS011;45349;48.692;8.186;2023-06-22T03:52:42;13.23;;;5.17;;
59530;SDS011;45349;48.692;8.186;2023-06-22T03:55:08;9.93;;;4.77;;
59530;SDS011;45349;48.692;8.186;2023-06-22T03:57:37;10.50;;;5.00;;
59530;SDS011;45349;48.692;8.186;2023-06-22T04:00:04;13.53;;;5.53;;
59530;SDS011;45349;48.692;8.186;2023-06-22T04:02:37;11.57;;;5.90;;
59530;SDS011;45349;48.692;8.186;2023-06-22T04:05:04;10.93;;;5.23;;
59530;SDS011;45349;48.692;8.186;2023-06-22T04:07:31;13.67;;;5.70;;
59530;SDS011;45349;48.692;8.186;2023-06-22T04:09:57;9.67;;;5.13;;
59530;SDS011;45349;48.692;8.186;2023-06-22T04:12:24;9.90;;;5.07;;
59530;SDS011;45349;48.692;8.186;2023-06-22T04:14:52;9.73;;;4.80;;
59530;SDS011;45349;48.692;8.186;2023-06-22T04:17:18;8.80;;;5.00;;
59530;SDS011;45349;48.692;8.186;2023-06-22T04:19:45;12.00;;;4.87;;
59530;SDS011;45349;48.692;8.186;2023-06-22T04:22:12;9.80;;;5.00;;
59530;SDS011;45349;48.692;8.186;2023-06-22T04:24:38;9.30;;;4.63;;
59530;SDS011;45349;48.692;8.186;2023-06-22T04:27:05;10.20;;;4.30;;
59530;SDS011;45349;48.692;8.186;2023-06-22T04:29:31;9.13;;;4.40;;
59530;SDS011;45349;48.692;8.186;2023-06-22T04:31:59;13.27;;;4.77;;
59530;SDS011;45349;48.692;8.186;2023-06-22T04:34:31;10.03;;;4.67;;
59530;SDS011;45349;48.692;8.186;2023-06-22T04:36:57;10.23;;;4.77;;
59530;SDS011;45349;48.692;8.186;2023-06-22T04:39:24;10.97;;;4.93;;
59530;SDS011;45349;48.692;8.186;2023-06-22T04:41:52;9.30;;;4.33;;
59530;SDS011;45349;48.692;8.186;2023-06-22T04:44:20;8.80;;;4.67;;
59530;SDS011;45349;48.692;8.186;2023-06-22T04:46:49;7.73;;;4.50;;
59530;SDS011;45349;48.692;8.186;2023-06-22T04:49:20;9.07;;;4.70;;
59530;SDS011;45349;48.692;8.186;2023-06-22T04:51:47;9.10;;;4.33;;
59530;SDS011;45349;48.692;8.186;2023-06-22T04:54:15;6.27;;;4.10;;
59530;SDS011;45349;48.692;8.186;2023-06-22T04:56:41;12.77;;;4.30;;
59530;SDS011;45349;48.692;8.186;2023-06-22T04:59:08;7.73;;;4.33;;
59530;SDS011;45349;48.692;8.186;2023-06-22T05:01:38;11.50;;;4.60;;
59530;SDS011;45349;48.692;8.186;2023-06-22T05:04:04;10.73;;;5.00;;
59530;SDS011;45349;48.692;8.186;2023-06-22T05:06:33;10.00;;;4.60;;
59530;SDS011;45349;48.692;8.186;2023-06-22T05:08:59;11.63;;;5.00;;
59530;SDS011;45349;48.692;8.186;2023-06-22T05:11:26;10.43;;;5.97;;
59530;SDS011;45349;48.692;8.186;2023-06-22T05:13:54;9.67;;;5.10;;
59530;SDS011;45349;48.692;8.186;2023-06-22T05:16:21;11.73;;;6.17;;
59530;SDS011;45349;48.692;8.186;2023-06-22T05:18:50;9.50;;;5.50;;
59530;SDS011;45349;48.692;8.186;2023-06-22T05:21:18;7.60;;;4.83;;
59530;SDS011;45349;48.692;8.186;2023-06-22T05:23:46;11.47;;;5.13;;
59530;SDS011;45349;48.692;8.186;2023-06-22T05:26:13;8.67;;;5.43;;
59530;SDS011;45349;48.692;8.186;2023-06-22T05:28:39;12.63;;;4.70;;
59530;SDS011;45349;48.692;8.186;2023-06-22T05:31:06;8.57;;;5.03;;
59530;SDS011;45349;48.692;8.186;2023-06-22T05:33:32;9.13;;;4.77;;
59530;SDS011;45349;48.692;8.186;2023-06-22T05:35:59;9.57;;;4.90;;
59530;SDS011;45349;48.692;8.186;2023-06-22T05:38:26;9.23;;;5.17;;
59530;SDS011;45349;48.692;8.186;2023-06-22T05:40:54;10.07;;;5.23;;
59530;SDS011;45349;48.692;8.186;2023-06-22T05:43:20;9.70;;;5.20;;
59530;SDS011;45349;48.692;8.186;2023-06-22T05:45:47;11.87;;;4.83;;
59530;SDS011;45349;48.692;8.186;2023-06-22T05:48:14;8.80;;;4.50;;
59530;SDS011;45349;48.692;8.186;2023-06-22T05:50:41;7.13;;;4.83;;
59530;SDS011;45349;48.692;8.186;2023-06-22T05:53:08;6.27;;;4.27;;
59530;SDS011;45349;48.692;8.186;2023-06-22T05:55:34;10.03;;;6.40;;
59530;SDS011;45349;48.692;8.186;2023-06-22T05:58:02;8.70;;;6.97;;
59530;SDS011;45349;48.692;8.186;2023-06-22T06:00:29;11.03;;;7.30;;
59530;SDS011;45349;48.692;8.186;2023-06-22T06:02:56;12.57;;;7.20;;
59530;SDS011;45349;48.692;8.186;2023-06-22T06:05:28;10.93;;;7.47;;
59530;SDS011;45349;48.692;8.186;2023-06-22T06:07:55;10.90;;;7.03;;
59530;SDS011;45349;48.692;8.186;2023-06-22T06:10:22;13.00;;;7.23;;
59530;SDS011;45349;48.692;8.186;2023-06-22T06:12:49;10.93;;;7.10;;
59530;SDS011;45349;48.692;8.186;2023-06-22T06:15:17;11.47;;;6.70;;
59530;SDS011;45349;48.692;8.186;2023-06-22T06:17:47;12.60;;;7.93;;
59530;SDS011;45349;48.692;8.186;2023-06-22T06:20:14;13.33;;;7.70;;
59530;SDS011;45349;48.692;8.186;2023-06-22T06:22:40;11.10;;;7.30;;
59530;SDS011;45349;48.692;8.186;2023-06-22T06:25:08;11.00;;;6.90;;
59530;SDS011;45349;48.692;8.186;2023-06-22T06:27:35;11.63;;;8.33;;
59530;SDS011;45349;48.692;8.186;2023-06-22T06:30:02;13.30;;;8.50;;
59530;SDS011;45349;48.692;8.186;2023-06-22T06:32:30;13.50;;;8.83;;
59530;SDS011;45349;48.692;8.186;2023-06-22T06:34:57;16.33;;;8.77;;
59530;SDS011;45349;48.692;8.186;2023-06-22T06:37:23;10.27;;;7.60;;
59530;SDS011;45349;48.692;8.186;2023-06-22T06:39:50;12.40;;;8.03;;
59530;SDS011;45349;48.692;8.186;2023-06-22T06:42:16;13.83;;;8.57;;
59530;SDS011;45349;48.692;8.186;2023-06-22T06:44:44;15.07;;;9.40;;
59530;SDS011;45349;48.692;8.186;2023-06-22T06:47:11;12.07;;;8.27;;
59530;SDS011;45349;48.692;8.186;2023-06-22T06:49:39;10.60;;;8.33;;
59530;SDS011;45349;48.692;8.186;2023-06-22T06:52:06;13.57;;;8.90;;
59530;SDS011;45349;48.692;8.186;2023-06-22T06:54:32;15.67;;;8.93;;
59530;SDS011;45349;48.692;8.186;2023-06-22T06:56:59;13.27;;;9.07;;
59530;SDS011;45349;48.692;8.186;2023-06-22T06:59:28;13.40;;;8.77;;
59530;SDS011;45349;48.692;8.186;2023-06-22T07:01:55;13.50;;;8.53;;
59530;SDS011;45349;48.692;8.186;2023-06-22T07:04:22;13.23;;;8.47;;
59530;SDS011;45349;48.692;8.186;2023-06-22T07:06:49;12.70;;;8.37;;
59530;SDS011;45349;48.692;8.186;2023-06-22T07:09:16;12.17;;;8.63;;
59530;SDS011;45349;48.692;8.186;2023-06-22T07:11:43;13.37;;;8.10;;
59530;SDS011;45349;48.692;8.186;2023-06-22T07:14:10;13.33;;;8.30;;
59530;SDS011;45349;48.692;8.186;2023-06-22T07:16:36;11.53;;;8.03;;
59530;SDS011;45349;48.692;8.186;2023-06-22T07:19:03;11.00;;;7.60;;
59530;SDS011;45349;48.692;8.186;2023-06-22T07:21:30;12.93;;;7.13;;
59530;SDS011;45349;48.692;8.186;2023-06-22T07:23:57;14.53;;;7.93;;
59530;SDS011;45349;48.692;8.186;2023-06-22T07:26:24;13.23;;;7.53;;
59530;SDS011;45349;48.692;8.186;2023-06-22T07:28:51;11.63;;;7.37;;
59530;SDS011;45349;48.692;8.186;2023-06-22T07:31:17;14.57;;;7.67;;
59530;SDS011;45349;48.692;8.186;2023-06-22T07:33:44;11.37;;;7.33;;
59530;SDS011;45349;48.692;8.186;2023-06-22T07:36:10;13.90;;;8.07;;
59530;SDS011;45349;48.692;8.186;2023-06-22T07:38:37;10.53;;;7.63;;
59530;SDS011;45349;48.692;8.186;2023-06-22T07:41:05;11.00;;;6.97;;
59530;SDS011;45349;48.692;8.186;2023-06-22T07:43:31;9.47;;;7.03;;
59530;SDS011;45349;48.692;8.186;2023-06-22T07:45:59;11.83;;;7.53;;
59530;SDS011;45349;48.692;8.186;2023-06-22T07:48:26;15.67;;;7.67;;
59530;SDS011;45349;48.692;8.186;2023-06-22T07:50:52;9.53;;;6.77;;
59530;SDS011;45349;48.692;8.186;2023-06-22T07:53:20;13.27;;;7.00;;
59530;SDS011;45349;48.692;8.186;2023-06-22T07:55:48;14.33;;;7.80;;
59530;SDS011;45349;48.692;8.186;2023-06-22T07:58:16;12.47;;;6.97;;
59530;SDS011;45349;48.692;8.186;2023-06-22T08:00:44;12.37;;;9.33;;
59530;SDS011;45349;48.692;8.186;2023-06-22T08:03:10;12.63;;;8.07;;
59530;SDS011;45349;48.692;8.186;2023-06-22T08:05:37;13.37;;;8.23;;
59530;SDS011;45349;48.692;8.186;2023-06-22T08:08:04;16.07;;;8.10;;
59530;SDS011;45349;48.692;8.186;2023-06-22T08:10:30;16.00;;;7.93;;
59530;SDS011;45349;48.692;8.186;2023-06-22T08:12:57;13.37;;;8.37;;
59530;SDS011;45349;48.692;8.186;2023-06-22T08:15:28;15.90;;;8.37;;
59530;SDS011;45349;48.692;8.186;2023-06-22T08:17:56;13.17;;;8.20;;
59530;SDS011;45349;48.692;8.186;2023-06-22T08:20:25;11.80;;;8.40;;
59530;SDS011;45349;48.692;8.186;2023-06-22T08:22:56;14.20;;;7.67;;
59530;SDS011;45349;48.692;8.186;2023-06-22T08:25:35;14.80;;;8.17;;
59530;SDS011;45349;48.692;8.186;2023-06-22T08:28:02;16.07;;;8.60;;
59530;SDS011;45349;48.692;8.186;2023-06-22T08:30:31;13.03;;;8.90;;
59530;SDS011;45349;48.692;8.186;2023-06-22T08:32:57;15.23;;;9.33;;
59530;SDS011;45349;48.692;8.186;2023-06-22T08:35:25;15.47;;;9.43;;
59530;SDS011;45349;48.692;8.186;2023-06-22T08:37:52;13.33;;;8.73;;
59530;SDS011;45349;48.692;8.186;2023-06-22T08:40:22;12.87;;;8.30;;
59530;SDS011;45349;48.692;8.186;2023-06-22T08:42:49;13.90;;;8.70;;
59530;SDS011;45349;48.692;8.186;2023-06-22T08:45:42;11.37;;;7.60;;
59530;SDS011;45349;48.692;8.186;2023-06-22T08:48:08;14.00;;;8.13;;
59530;SDS011;45349;48.692;8.186;2023-06-22T08:50:35;15.20;;;7.70;;
59530;SDS011;45349;48.692;8.186;2023-06-22T08:53:01;12.77;;;8.47;;
59530;SDS011;45349;48.692;8.186;2023-06-22T08:55:28;11.10;;;7.50;;
59530;SDS011;45349;48.692;8.186;2023-06-22T08:57:54;9.93;;;7.80;;
59530;SDS011;45349;48.692;8.186;2023-06-22T09:00:22;12.33;;;8.07;;
59530;SDS011;45349;48.692;8.186;2023-06-22T09:02:50;14.63;;;9.93;;
59530;SDS011;45349;48.692;8.186;2023-06-22T09:08:28;16.40;;;9.90;;
59530;SDS011;45349;48.692;8.186;2023-06-22T09:10:55;13.40;;;9.32;;
59530;SDS011;45349;48.692;8.186;2023-06-22T09:13:21;15.20;;;7.47;;
59530;SDS011;45349;48.692;8.186;2023-06-22T09:15:48;12.70;;;9.80;;
59530;SDS011;45349;48.692;8.186;2023-06-22T09:18:16;13.60;;;8.97;;
59530;SDS011;45349;48.692;8.186;2023-06-22T09:20:43;13.50;;;8.90;;
59530;SDS011;45349;48.692;8.186;2023-06-22T09:23:11;15.52;;;8.77;;
59530;SDS011;45349;48.692;8.186;2023-06-22T09:25:37;13.50;;;8.70;;
59530;SDS011;45349;48.692;8.186;2023-06-22T09:28:05;14.18;;;8.30;;
59530;SDS011;45349;48.692;8.186;2023-06-22T09:30:32;13.45;;;8.13;;
59530;SDS011;45349;48.692;8.186;2023-06-22T09:32:58;11.90;;;8.20;;
59530;SDS011;45349;48.692;8.186;2023-06-22T09:35:27;12.75;;;8.25;;
59530;SDS011;45349;48.692;8.186;2023-06-22T09:37:54;12.25;;;7.72;;
59530;SDS011;45349;48.692;8.186;2023-06-22T09:40:22;11.50;;;7.70;;
59530;SDS011;45349;48.692;8.186;2023-06-22T09:42:49;14.33;;;7.50;;
59530;SDS011;45349;48.692;8.186;2023-06-22T09:45:19;12.50;;;7.30;;
59530;SDS011;45349;48.692;8.186;2023-06-22T09:47:46;13.45;;;8.00;;
59530;SDS011;45349;48.692;8.186;2023-06-22T09:50:12;13.00;;;8.48;;
59530;SDS011;45349;48.692;8.186;2023-06-22T09:52:40;13.45;;;8.93;;
59530;SDS011;45349;48.692;8.186;2023-06-22T09:55:09;11.57;;;8.13;;
59530;SDS011;45349;48.692;8.186;2023-06-22T09:57:36;11.23;;;7.40;;
59530;SDS011;45349;48.692;8.186;2023-06-22T10:00:03;14.52;;;8.85;;
59530;SDS011;45349;48.692;8.186;2023-06-22T10:02:34;11.60;;;7.68;;
59530;SDS011;45349;48.692;8.186;2023-06-22T10:05:00;10.65;;;8.15;;
59530;SDS011;45349;48.692;8.186;2023-06-22T10:07:27;14.43;;;7.82;;
59530;SDS011;45349;48.692;8.186;2023-06-22T10:09:55;10.50;;;7.60;;
59530;SDS011;45349;48.692;8.186;2023-06-22T10:12:21;11.93;;;7.70;;
59530;SDS011;45349;48.692;8.186;2023-06-22T10:14:48;14.63;;;8.60;;
59530;SDS011;45349;48.692;8.186;2023-06-22T10:17:14;10.68;;;7.22;;
59530;SDS011;45349;48.692;8.186;2023-06-22T10:19:41;11.93;;;7.10;;
59530;SDS011;45349;48.692;8.186;2023-06-22T10:22:07;12.02;;;7.57;;
59530;SDS011;45349;48.692;8.186;2023-06-22T10:24:34;10.63;;;7.53;;
59530;SDS011;45349;48.692;8.186;2023-06-22T10:27:02;10.48;;;7.50;;
59530;SDS011;45349;48.692;8.186;2023-06-22T10:29:29;16.55;;;8.55;;
59530;SDS011;45349;48.692;8.186;2023-06-22T10:31:55;15.48;;;8.43;;
59530;SDS011;45349;48.692;8.186;2023-06-22T10:34:22;10.48;;;7.63;;
59530;SDS011;45349;48.692;8.186;2023-06-22T10:36:48;13.93;;;8.82;;
59530;SDS011;45349;48.692;8.186;2023-06-22T10:39:15;11.27;;;7.40;;
59530;SDS011;45349;48.692;8.186;2023-06-22T10:41:41;12.70;;;7.63;;
59530;SDS011;45349;48.692;8.186;2023-06-22T10:44:09;10.82;;;7.90;;
59530;SDS011;45349;48.692;8.186;2023-06-22T10:46:37;12.93;;;6.93;;
59530;SDS011;45349;48.692;8.186;2023-06-22T10:49:03;12.85;;;7.90;;
59530;SDS011;45349;48.692;8.186;2023-06-22T10:51:30;13.23;;;7.28;;
59530;SDS011;45349;48.692;8.186;2023-06-22T10:53:57;11.23;;;7.15;;
59530;SDS011;45349;48.692;8.186;2023-06-22T10:56:24;12.38;;;7.82;;
59530;SDS011;45349;48.692;8.186;2023-06-22T10:58:50;9.90;;;7.15;;
59530;SDS011;45349;48.692;8.186;2023-06-22T11:01:18;10.77;;;7.60;;
59530;SDS011;45349;48.692;8.186;2023-06-22T11:03:46;14.27;;;8.13;;
59530;SDS011;45349;48.692;8.186;2023-06-22T11:06:13;11.95;;;7.82;;
59530;SDS011;45349;48.692;8.186;2023-06-22T11:08:40;14.90;;;7.40;;
59530;SDS011;45349;48.692;8.186;2023-06-22T11:11:10;13.40;;;7.53;;
59530;SDS011;45349;48.692;8.186;2023-06-22T11:13:36;14.35;;;8.15;;
59530;SDS011;45349;48.692;8.186;2023-06-22T11:16:03;12.80;;;7.03;;
59530;SDS011;45349;48.692;8.186;2023-06-22T11:18:32;12.88;;;7.15;;
59530;SDS011;45349;48.692;8.186;2023-06-22T11:20:58;10.60;;;7.20;;
59530;SDS011;45349;48.692;8.186;2023-06-22T11:23:25;10.98;;;7.10;;
59530;SDS011;45349;48.692;8.186;2023-06-22T11:25:53;11.00;;;7.40;;
59530;SDS011;45349;48.692;8.186;2023-06-22T11:28:19;12.82;;;7.85;;
59530;SDS011;45349;48.692;8.186;2023-06-22T11:30:46;8.07;;;6.68;;
59530;SDS011;45349;48.692;8.186;2023-06-22T11:33:12;12.93;;;7.60;;
59530;SDS011;45349;48.692;8.186;2023-06-22T11:35:40;10.95;;;6.90;;
59530;SDS011;45349;48.692;8.186;2023-06-22T11:38:07;14.73;;;7.68;;
59530;SDS011;45349;48.692;8.186;2023-06-22T11:40:33;13.13;;;7.05;;
59530;SDS011;45349;48.692;8.186;2023-06-22T11:43:00;12.20;;;7.03;;
59530;SDS011;45349;48.692;8.186;2023-06-22T11:45:27;12.35;;;7.35;;
59530;SDS011;45349;48.692;8.186;2023-06-22T11:47:53;10.57;;;7.20;;
59530;SDS011;45349;48.692;8.186;2023-06-22T11:50:22;13.25;;;7.05;;
59530;SDS011;45349;48.692;8.186;2023-06-22T11:52:50;15.48;;;7.50;;
59530;SDS011;45349;48.692;8.186;2023-06-22T11:55:22;10.80;;;7.40;;
59530;SDS011;45349;48.692;8.186;2023-06-22T11:57:53;12.73;;;7.82;;
59530;SDS011;45349;48.692;8.186;2023-06-22T12:00:22;11.80;;;7.55;;
59530;SDS011;45349;48.692;8.186;2023-06-22T12:02:49;14.23;;;8.23;;
59530;SDS011;45349;48.692;8.186;2023-06-22T12:05:22;13.05;;;8.05;;
59530;SDS011;45349;48.692;8.186;2023-06-22T12:07:52;11.68;;;6.80;;
59530;SDS011;45349;48.692;8.186;2023-06-22T12:10:22;13.52;;;7.60;;
59530;SDS011;45349;48.692;8.186;2023-06-22T12:12:50;14.32;;;7.85;;
59530;SDS011;45349;48.692;8.186;2023-06-22T12:15:19;19.88;;;7.78;;
59530;SDS011;45349;48.692;8.186;2023-06-22T12:17:46;13.10;;;8.05;;
59530;SDS011;45349;48.692;8.186;2023-06-22T12:20:13;14.68;;;9.15;;
59530;SDS011;45349;48.692;8.186;2023-06-22T12:22:40;14.93;;;9.05;;
59530;SDS011;45349;48.692;8.186;2023-06-22T12:25:08;15.73;;;9.98;;
59530;SDS011;45349;48.692;8.186;2023-06-22T12:27:35;15.68;;;9.32;;
59530;SDS011;45349;48.692;8.186;2023-06-22T12:30:02;16.65;;;9.50;;
59530;SDS011;45349;48.692;8.186;2023-06-22T12:32:30;13.80;;;9.27;;
59530;SDS011;45349;48.692;8.186;2023-06-22T12:34:57;11.15;;;8.48;;
59530;SDS011;45349;48.692;8.186;2023-06-22T12:37:24;13.48;;;9.38;;
59530;SDS011;45349;48.692;8.186;2023-06-22T12:39:50;13.85;;;9.10;;
59530;SDS011;45349;48.692;8.186;2023-06-22T12:42:18;14.02;;;8.48;;
59530;SDS011;45349;48.692;8.186;2023-06-22T12:44:46;13.18;;;8.88;;
59530;SDS011;45349;48.692;8.186;2023-06-22T12:47:12;11.95;;;7.88;;
59530;SDS011;45349;48.692;8.186;2023-06-22T12:49:39;13.35;;;8.50;;
59530;SDS011;45349;48.692;8.186;2023-06-22T12:52:08;13.40;;;8.82;;
59530;SDS011;45349;48.692;8.186;2023-06-22T12:54:36;16.63;;;8.20;;
59530;SDS011;45349;48.692;8.186;2023-06-22T12:57:03;12.07;;;9.20;;
59530;SDS011;45349;48.692;8.186;2023-06-22T12:59:31;13.43;;;8.63;;
59530;SDS011;45349;48.692;8.186;2023-06-22T13:01:57;14.85;;;8.02;;
59530;SDS011;45349;48.692;8.186;2023-06-22T13:04:24;13.85;;;8.50;;
59530;SDS011;45349;48.692;8.186;2023-06-22T13:06:50;15.15;;;9.20;;
59530;SDS011;45349;48.692;8.186;2023-06-22T13:09:18;12.95;;;8.77;;
59530;SDS011;45349;48.692;8.186;2023-06-22T13:11:45;12.77;;;8.82;;
59530;SDS011;45349;48.692;8.186;2023-06-22T13:14:11;14.65;;;9.73;;
59530;SDS011;45349;48.692;8.186;2023-06-22T13:16:39;17.63;;;9.32;;
59530;SDS011;45349;48.692;8.186;2023-06-22T13:19:06;16.20;;;9.80;;
59530;SDS011;45349;48.692;8.186;2023-06-22T13:21:32;16.02;;;9.55;;
59530;SDS011;45349;48.692;8.186;2023-06-22T13:23:59;17.92;;;10.23;;
59530;SDS011;45349;48.692;8.186;2023-06-22T13:26:27;15.35;;;9.00;;
59530;SDS011;45349;48.692;8.186;2023-06-22T13:28:55;19.88;;;10.57;;
59530;SDS011;45349;48.692;8.186;2023-06-22T13:31:22;14.68;;;8.63;;
59530;SDS011;45349;48.692;8.186;2023-06-22T13:33:50;15.15;;;10.43;;
59530;SDS011;45349;48.692;8.186;2023-06-22T13:36:17;16.95;;;9.65;;
59530;SDS011;45349;48.692;8.186;2023-06-22T13:38:44;14.23;;;9.88;;
59530;SDS011;45349;48.692;8.186;2023-06-22T13:41:11;20.20;;;9.63;;
59530;SDS011;45349;48.692;8.186;2023-06-22T13:43:38;13.48;;;9.80;;
59530;SDS011;45349;48.692;8.186;2023-06-22T13:46:04;15.40;;;9.93;;
59530;SDS011;45349;48.692;8.186;2023-06-22T13:48:31;16.30;;;8.43;;
59530;SDS011;45349;48.692;8.186;2023-06-22T13:50:59;18.20;;;9.98;;
59530;SDS011;45349;48.692;8.186;2023-06-22T13:53:25;15.15;;;9.30;;
59530;SDS011;45349;48.692;8.186;2023-06-22T13:55:52;19.55;;;9.57;;
59530;SDS011;45349;48.692;8.186;2023-06-22T13:58:18;14.68;;;8.63;;
59530;SDS011;45349;48.692;8.186;2023-06-22T14:00:46;17.48;;;9.40;;
59530;SDS011;45349;48.692;8.186;2023-06-22T14:03:13;15.93;;;7.70;;
59530;SDS011;45349;48.692;8.186;2023-06-22T14:05:41;13.95;;;8.07;;
59530;SDS011;45349;48.692;8.186;2023-06-22T14:08:09;18.92;;;9.32;;
59530;SDS011;45349;48.692;8.186;2023-06-22T14:10:35;17.77;;;8.25;;
59530;SDS011;45349;48.692;8.186;2023-06-22T14:13:02;17.52;;;8.60;;
59530;SDS011;45349;48.692;8.186;2023-06-22T14:15:30;17.30;;;7.82;;
59530;SDS011;45349;48.692;8.186;2023-06-22T14:17:57;18.15;;;8.40;;
59530;SDS011;45349;48.692;8.186;2023-06-22T14:20:24;16.33;;;7.60;;
59530;SDS011;45349;48.692;8.186;2023-06-22T14:22:54;17.08;;;8.57;;
59530;SDS011;45349;48.692;8.186;2023-06-22T14:25:23;16.77;;;7.80;;
59530;SDS011;45349;48.692;8.186;2023-06-22T14:27:50;18.33;;;7.82;;
59530;SDS011;45349;48.692;8.186;2023-06-22T14:30:22;16.83;;;8.38;;
59530;SDS011;45349;48.692;8.186;2023-06-22T14:32:49;11.98;;;7.20;;
59530;SDS011;45349;48.692;8.186;2023-06-22T14:35:15;16.90;;;7.50;;
59530;SDS011;45349;48.692;8.186;2023-06-22T14:37:42;15.13;;;7.68;;
59530;SDS011;45349;48.692;8.186;2023-06-22T14:40:09;11.13;;;6.90;;
59530;SDS011;45349;48.692;8.186;2023-06-22T14:42:37;11.15;;;7.43;;
59530;SDS011;45349;48.692;8.186;2023-06-22T14:45:04;17.27;;;7.78;;